Time;durP1;ratioP1;P1;durP2;ratioP2;P2;SDS_P1;SDS_P2;PMS_P1;PMS_P2;Temp;Humidity;BMP_temperature;BMP_pressure;BME280_temperature;BME280_humidity;BME280_pressure;Samples;Min_cycle;Max_cycle;Signal;HPM_P1;HPM_P2
2022/07/27 00:00:53;;;;;;;19.60;17.42;;;;;;;22.25;86.69;99045.13;4907245;29;20359;-55
2022/07/27 00:03:18;;;;;;;21.60;19.33;;;;;;;22.20;86.70;99053.41;4906969;29;20028;-55
2022/07/27 00:05:44;;;;;;;18.40;16.60;;;;;;;22.21;86.87;99049.78;4910648;29;20043;-56
2022/07/27 00:08:10;;;;;;;19.33;17.40;;;;;;;22.19;86.66;99046.44;4910846;29;20059;-56
2022/07/27 00:10:36;;;;;;;20.52;17.27;;;;;;;22.20;86.73;99042.84;4910976;29;20094;-56
2022/07/27 00:13:03;;;;;;;19.27;17.30;;;;;;;22.18;87.04;99042.13;4910901;29;20029;-56
2022/07/27 00:15:29;;;;;;;18.83;16.95;;;;;;;22.12;87.09;99036.50;4911054;29;20036;-56
2022/07/27 00:17:57;;;;;;;21.65;18.35;;;;;;;22.04;87.70;99042.38;4911166;29;20039;-57
2022/07/27 00:20:22;;;;;;;21.77;18.92;;;;;;;21.94;87.63;99039.63;4911368;29;20053;-56
2022/07/27 00:22:48;;;;;;;20.58;18.50;;;;;;;22.01;87.78;99051.38;4911017;29;20028;-57
2022/07/27 00:25:13;;;;;;;23.42;18.67;;;;;;;22.04;87.41;99045.84;4910889;29;20047;-57
2022/07/27 00:27:39;;;;;;;20.08;18.05;;;;;;;22.05;87.57;99044.91;4910868;29;20051;-57
2022/07/27 00:30:05;;;;;;;21.55;19.33;;;;;;;22.06;87.44;99037.81;4910784;29;20080;-57
2022/07/27 00:32:31;;;;;;;21.02;18.92;;;;;;;22.04;87.67;99040.56;4911008;29;20100;-57
2022/07/27 00:34:56;;;;;;;21.02;19.13;;;;;;;22.06;87.40;99048.38;4910657;29;20024;-57
2022/07/27 00:37:22;;;;;;;21.52;18.83;;;;;;;22.08;87.57;99051.75;4910813;29;20051;-57
2022/07/27 00:39:47;;;;;;;21.55;19.17;;;;;;;22.08;87.23;99046.47;4910703;29;20425;-57
2022/07/27 00:42:13;;;;;;;20.25;18.20;;;;;;;22.03;87.70;99048.63;4910533;29;20084;-57
2022/07/27 00:44:39;;;;;;;20.60;18.67;;;;;;;22.02;87.75;99052.22;4910839;29;20209;-55
2022/07/27 00:47:04;;;;;;;21.52;19.40;;;;;;;22.04;87.54;99055.56;4912104;29;20157;-56
2022/07/27 00:49:30;;;;;;;21.15;18.52;;;;;;;22.01;87.73;99059.28;4909345;29;20032;-55
2022/07/27 00:51:56;;;;;;;21.63;19.63;;;;;;;22.02;87.77;99057.50;4910389;29;20043;-56
2022/07/27 00:54:22;;;;;;;21.05;18.92;;;;;;;21.97;88.08;99054.38;4913323;29;20190;-56
2022/07/27 00:56:48;;;;;;;20.83;18.85;;;;;;;22.03;88.09;99059.16;4910296;29;20391;-55
2022/07/27 00:59:14;;;;;;;20.73;17.92;;;;;;;21.98;88.03;99056.91;4909618;29;20039;-55
2022/07/27 01:01:40;;;;;;;22.60;20.20;;;;;;;21.95;88.02;99058.94;4910102;29;20032;-56
2022/07/27 01:04:07;;;;;;;22.67;18.77;;;;;;;21.93;88.47;99058.22;4910208;29;20029;-56
2022/07/27 01:06:33;;;;;;;20.98;19.08;;;;;;;21.95;87.96;99062.41;4910365;29;20028;-56
2022/07/27 01:11:45;;;;;;;20.88;18.70;;;;;;;21.91;88.44;99060.16;4909950;29;20036;-56
2022/07/27 01:14:15;;;;;;;20.70;18.60;;;;;;;21.92;88.10;99070.56;4909925;29;20037;-56
2022/07/27 01:16:42;;;;;;;23.08;20.40;;;;;;;21.93;87.97;99069.59;4907779;29;20032;-57
2022/07/27 01:19:09;;;;;;;22.58;20.40;;;;;;;21.65;88.26;99026.97;4909863;29;20076;-57
2022/07/27 01:21:36;;;;;;;21.20;19.05;;;;;;;21.85;88.42;99074.66;4909902;29;20037;-57
2022/07/27 01:24:02;;;;;;;23.08;20.70;;;;;;;21.77;89.00;99069.97;4908603;29;20028;-57
2022/07/27 01:26:28;;;;;;;22.67;20.25;;;;;;;21.83;88.51;99073.91;4910013;29;20097;-57
2022/07/27 01:28:58;;;;;;;24.05;21.73;;;;;;;21.73;88.85;99073.78;4909920;29;20326;-57
2022/07/27 01:31:23;;;;;;;22.05;19.80;;;;;;;21.58;88.50;99044.22;4909565;29;20059;-56
2022/07/27 01:33:49;;;;;;;22.10;19.95;;;;;;;21.76;88.81;99073.56;4909389;29;20028;-56
2022/07/27 01:36:15;;;;;;;23.13;20.75;;;;;;;21.80;88.45;99076.81;4909763;29;20056;-56
2022/07/27 01:38:41;;;;;;;21.00;18.95;;;;;;;21.78;88.30;99074.28;4909703;29;20028;-56
2022/07/27 01:41:07;;;;;;;23.27;20.92;;;;;;;21.72;88.66;99075.59;4909660;29;20324;-57
2022/07/27 01:43:33;;;;;;;24.02;21.63;;;;;;;21.71;88.88;99071.28;4909503;29;20028;-57
2022/07/27 01:45:58;;;;;;;23.52;20.98;;;;;;;21.70;89.04;99063.50;4908159;29;20693;-55
2022/07/27 01:48:25;;;;;;;22.00;19.70;;;;;;;21.74;88.67;99072.84;4909658;29;20032;-57
2022/07/27 01:50:52;;;;;;;23.90;21.25;;;;;;;21.77;88.55;99077.03;4909193;29;20100;-56
2022/07/27 01:53:19;;;;;;;21.95;19.70;;;;;;;21.74;88.81;99078.13;4909217;29;20324;-56
2022/07/27 01:55:46;;;;;;;23.42;21.00;;;;;;;21.72;88.62;99069.50;4924600;29;20380;-56
2022/07/27 01:58:12;;;;;;;23.50;21.00;;;;;;;21.68;88.88;99075.97;4912742;29;20032;-56
2022/07/27 02:00:37;;;;;;;24.10;20.73;;;;;;;21.69;89.05;99080.25;4908610;29;20048;-56
2022/07/27 02:03:05;;;;;;;22.33;19.95;;;;;;;21.72;89.14;99078.25;4909256;29;20033;-57
2022/07/27 02:05:30;;;;;;;23.17;20.67;;;;;;;21.71;88.75;99081.00;4909232;29;20037;-56
2022/07/27 02:07:56;;;;;;;22.27;19.90;;;;;;;21.70;89.14;99072.22;4909226;29;20198;-56
2022/07/27 02:10:22;;;;;;;22.80;20.38;;;;;;;21.70;88.85;99079.31;4909050;29;20259;-56
2022/07/27 02:12:49;;;;;;;22.70;20.48;;;;;;;21.71;88.94;99078.38;4908799;29;20036;-55
2022/07/27 02:15:34;;;;;;;24.95;21.15;;;;;;;21.68;89.38;99076.78;4908182;29;20321;-55
2022/07/27 02:18:00;;;;;;;23.23;20.83;;;;;;;21.72;89.40;99082.69;4909097;29;20088;-56
2022/07/27 02:20:29;;;;;;;22.75;20.50;;;;;;;21.68;89.11;99076.78;4908838;29;20317;-55
2022/07/27 02:22:54;;;;;;;23.83;21.25;;;;;;;21.72;89.60;99082.69;4909031;29;20084;-55
2022/07/27 02:25:20;;;;;;;25.80;23.13;;;;;;;21.64;89.68;99078.00;4906402;29;20325;-56
2022/07/27 02:27:47;;;;;;;24.92;22.33;;;;;;;21.71;89.72;99075.72;4908776;29;20029;-56
2022/07/27 02:30:14;;;;;;;22.77;20.40;;;;;;;21.77;89.77;99080.50;4907391;29;20264;-56
2022/07/27 02:32:41;;;;;;;24.02;21.45;;;;;;;21.75;89.32;99073.69;4908603;29;20047;-56
2022/07/27 02:35:07;;;;;;;25.88;22.98;;;;;;;21.74;89.79;99075.47;4908692;29;20064;-56
2022/07/27 02:37:32;;;;;;;23.70;20.73;;;;;;;21.72;89.88;99078.25;4908526;29;20024;-56
2022/07/27 02:39:58;;;;;;;25.35;22.00;;;;;;;21.76;89.57;99070.91;4907256;29;20080;-54
2022/07/27 02:42:23;;;;;;;25.58;23.05;;;;;;;21.81;89.57;99075.84;4908498;29;20047;-55
2022/07/27 02:44:49;;;;;;;26.23;23.38;;;;;;;21.87;89.39;99080.63;4908262;29;20335;-56
2022/07/27 02:47:14;;;;;;;24.45;22.00;;;;;;;21.88;90.40;99071.78;4907605;29;20036;-56
2022/07/27 02:49:40;;;;;;;26.15;22.90;;;;;;;21.91;89.98;99081.25;4908284;29;20329;-56
2022/07/27 02:52:06;;;;;;;27.13;23.65;;;;;;;21.92;89.93;99077.63;4907156;29;20028;-56
2022/07/27 02:54:32;;;;;;;25.27;22.60;;;;;;;21.93;89.77;99079.31;4908039;29;20028;-56
2022/07/27 02:57:01;;;;;;;27.08;24.05;;;;;;;21.62;89.39;99043.03;4908308;29;20060;-56
2022/07/27 02:59:27;;;;;;;28.17;25.20;;;;;;;21.94;88.94;99092.38;4908265;29;20221;-56
2022/07/27 03:01:53;;;;;;;30.90;27.80;;;;;;;22.01;89.25;99090.94;4907094;29;20024;-55
2022/07/27 03:04:19;;;;;;;32.30;29.00;;;;;;;22.06;89.02;99090.56;4892168;29;20376;-56
2022/07/27 03:06:45;;;;;;;26.83;22.17;;;;;;;22.09;88.84;99094.75;4900697;29;20095;-55
2022/07/27 03:09:11;;;;;;;25.95;23.48;;;;;;;22.12;88.43;99068.13;4907849;29;20036;-56
2022/07/27 03:11:37;;;;;;;23.98;21.58;;;;;;;22.22;88.42;99080.50;4908108;29;20067;-55
2022/07/27 03:14:03;;;;;;;25.77;23.05;;;;;;;22.29;87.96;99095.81;4908062;29;20048;-55
2022/07/27 03:16:29;;;;;;;28.30;25.45;;;;;;;22.28;87.80;99096.81;4908015;29;20279;-56
2022/07/27 03:18:56;;;;;;;25.88;23.25;;;;;;;22.32;88.11;99095.56;4907717;29;20029;-56
2022/07/27 03:21:23;;;;;;;28.95;26.05;;;;;;;22.31;87.22;99100.00;4907793;29;20033;-56
2022/07/27 03:23:48;;;;;;;26.73;24.13;;;;;;;22.44;87.16;99110.47;4907810;29;20422;-56
2022/07/27 03:26:15;;;;;;;25.70;23.20;;;;;;;22.53;86.52;99103.59;4908052;29;20029;-56
2022/07/27 03:28:41;;;;;;;27.65;25.05;;;;;;;22.50;86.31;99096.78;4907832;29;20080;-56
2022/07/27 03:31:06;;;;;;;29.10;26.33;;;;;;;22.49;86.02;99095.09;4907775;29;20032;-56
2022/07/27 03:33:34;;;;;;;27.15;24.25;;;;;;;22.42;85.42;99070.16;4907647;29;20040;-56
2022/07/27 03:35:59;;;;;;;26.70;24.10;;;;;;;22.67;86.20;99098.03;4907700;29;20087;-56
2022/07/27 03:38:25;;;;;;;28.98;25.77;;;;;;;22.72;85.13;99101.16;4907015;29;20029;-56
2022/07/27 03:40:51;;;;;;;29.90;26.92;;;;;;;22.76;84.93;99099.09;4907699;29;20036;-57
2022/07/27 03:43:16;;;;;;;29.60;26.50;;;;;;;22.77;85.24;99095.47;4894363;29;20032;-57
2022/07/27 03:45:43;;;;;;;31.00;27.20;;;;;;;22.81;84.29;99089.00;4912798;29;20056;-56
2022/07/27 03:48:08;;;;;;;28.85;26.00;;;;;;;22.91;84.57;99097.00;4920079;29;20059;-56
2022/07/27 03:50:35;;;;;;;32.10;28.58;;;;;;;22.86;83.53;99097.38;4907287;29;20032;-56
2022/07/27 03:53:00;;;;;;;34.03;28.85;;;;;;;22.90;83.38;99093.53;4907583;29;20051;-57
2022/07/27 03:55:26;;;;;;;27.55;24.45;;;;;;;23.10;83.39;99096.31;4907271;29;20047;-56
2022/07/27 03:57:52;;;;;;;31.80;23.85;;;;;;;23.10;83.86;99096.31;4906145;29;20028;-56
2022/07/27 04:00:18;;;;;;;32.67;26.52;;;;;;;23.05;83.28;99086.13;4907267;29;20071;-56
2022/07/27 04:02:44;;;;;;;29.77;26.63;;;;;;;23.16;81.84;99094.97;4907500;29;20040;-56
2022/07/27 04:05:10;;;;;;;29.33;25.42;;;;;;;23.16;80.74;99095.84;4907486;29;20317;-56
2022/07/27 04:07:37;;;;;;;29.67;26.52;;;;;;;23.22;80.83;99103.25;4907320;29;20025;-56
2022/07/27 04:10:03;;;;;;;27.30;24.40;;;;;;;23.29;80.60;99094.78;4907118;29;20040;-56
2022/07/27 04:12:29;;;;;;;29.80;26.60;;;;;;;23.43;81.01;99110.34;4906817;29;20032;-57
2022/07/27 04:14:54;;;;;;;29.85;25.58;;;;;;;23.40;80.72;99115.88;4907304;29;20211;-55
2022/07/27 04:17:20;;;;;;;26.38;23.73;;;;;;;23.60;79.82;99115.03;4907442;29;20228;-55
2022/07/27 04:19:46;;;;;;;29.20;26.15;;;;;;;23.51;79.95;99112.34;4892301;29;20285;-56
2022/07/27 04:22:11;;;;;;;26.85;24.13;;;;;;;23.70;79.89;99119.53;4905836;29;20084;-56
2022/07/27 04:24:37;;;;;;;28.88;26.10;;;;;;;23.68;80.03;99113.53;4897134;29;20036;-56
2022/07/27 04:27:02;;;;;;;31.25;24.35;;;;;;;23.74;79.77;99120.94;4902093;29;20025;-56
2022/07/27 04:29:28;;;;;;;28.20;25.27;;;;;;;23.63;79.58;99113.94;4907143;29;20028;-56
2022/07/27 04:31:54;;;;;;;26.83;24.02;;;;;;;23.83;79.47;99114.88;4907116;29;20324;-56
2022/07/27 04:34:19;;;;;;;28.00;25.25;;;;;;;23.87;79.46;99113.69;4906884;29;20041;-56
2022/07/27 04:36:45;;;;;;;27.30;23.45;;;;;;;23.99;79.09;99117.06;4906969;29;20293;-55
2022/07/27 04:39:11;;;;;;;28.88;24.17;;;;;;;23.93;78.90;99118.44;4906826;29;20205;-55
2022/07/27 04:41:37;;;;;;;27.38;23.13;;;;;;;24.05;79.16;99116.53;4906344;29;20024;-56
2022/07/27 04:44:03;;;;;;;24.33;21.83;;;;;;;24.15;78.85;99118.38;4906927;29;20035;-56
2022/07/27 04:46:28;;;;;;;30.70;25.55;;;;;;;24.13;78.21;99119.34;4917362;29;20048;-56
2022/07/27 04:48:54;;;;;;;29.38;25.48;;;;;;;24.22;77.37;99125.63;4906955;29;20040;-56
2022/07/27 04:51:20;;;;;;;29.30;26.38;;;;;;;24.18;78.24;99121.56;4908212;29;20028;-56
2022/07/27 04:53:46;;;;;;;26.30;23.67;;;;;;;24.25;77.32;99119.25;4908986;29;20080;-56
2022/07/27 04:56:12;;;;;;;30.55;25.63;;;;;;;24.29;76.75;99129.41;4929211;29;20068;-56
2022/07/27 04:58:38;;;;;;;27.25;24.55;;;;;;;24.49;76.66;99126.00;4911642;29;20028;-56
2022/07/27 05:01:04;;;;;;;26.55;22.80;;;;;;;24.67;76.39;99118.25;4910159;29;20036;-56
2022/07/27 05:03:30;;;;;;;29.20;26.10;;;;;;;24.73;76.99;99120.34;4910404;29;20144;-56
2022/07/27 05:05:56;;;;;;;24.90;22.33;;;;;;;24.86;75.92;99115.63;4910140;29;20051;-56
2022/07/27 05:08:22;;;;;;;28.10;24.90;;;;;;;24.89;75.94;99111.84;4910265;29;20217;-56
2022/07/27 05:10:47;;;;;;;27.27;24.35;;;;;;;25.13;75.36;99108.78;4910185;29;20029;-56
2022/07/27 05:13:13;;;;;;;29.55;26.38;;;;;;;25.06;75.09;99116.44;4909880;29;20036;-56
2022/07/27 05:15:39;;;;;;;30.80;27.27;;;;;;;24.99;74.44;99108.22;4909906;29;20032;-56
2022/07/27 05:18:05;;;;;;;30.85;26.65;;;;;;;25.04;74.60;99105.16;4909753;29;20037;-57
2022/07/27 05:20:31;;;;;;;27.52;24.27;;;;;;;25.25;74.21;99112.09;4909714;29;20316;-56
2022/07/27 05:22:57;;;;;;;28.08;24.85;;;;;;;25.47;73.98;99111.00;4910349;29;20328;-57
2022/07/27 05:25:26;;;;;;;28.33;24.85;;;;;;;25.54;73.62;99096.19;4894546;29;20043;-57
2022/07/27 05:27:53;;;;;;;28.13;25.17;;;;;;;25.67;72.88;99115.25;4902327;29;20032;-56
2022/07/27 05:30:20;;;;;;;30.65;24.95;;;;;;;25.77;73.48;99109.09;4924687;29;20028;-56
2022/07/27 05:32:46;;;;;;;28.88;25.05;;;;;;;25.71;73.04;99117.63;4910012;29;20112;-56
2022/07/27 05:35:12;;;;;;;26.48;23.60;;;;;;;25.66;71.12;99113.59;4909841;29;20032;-55
2022/07/27 05:37:38;;;;;;;29.83;23.30;;;;;;;25.83;71.02;99109.34;4909406;29;20032;-55
2022/07/27 05:40:06;;;;;;;29.33;24.85;;;;;;;25.89;70.43;99118.53;4909560;29;20039;-55
2022/07/27 05:42:31;;;;;;;29.98;26.73;;;;;;;25.97;69.37;99108.03;4909669;29;20029;-56
2022/07/27 05:44:57;;;;;;;26.83;22.90;;;;;;;26.21;70.93;99116.47;4909309;29;20091;-57
2022/07/27 05:47:23;;;;;;;26.48;23.73;;;;;;;26.32;70.63;99121.59;4928000;29;20259;-57
2022/07/27 05:49:48;;;;;;;29.27;26.17;;;;;;;26.17;70.16;99126.56;4909631;29;20036;-57
2022/07/27 05:52:14;;;;;;;29.30;25.67;;;;;;;26.12;71.17;99119.06;4909441;29;20052;-57
2022/07/27 05:54:40;;;;;;;28.88;25.98;;;;;;;26.20;70.40;99117.47;4915796;29;20024;-57
2022/07/27 05:57:06;;;;;;;28.83;25.83;;;;;;;26.22;71.13;99112.84;4923179;29;20025;-56
2022/07/27 05:59:31;;;;;;;35.22;27.70;;;;;;;26.18;70.70;99120.25;4909152;29;20032;-56
2022/07/27 06:01:58;;;;;;;31.92;28.48;;;;;;;26.19;69.17;99113.97;4908729;29;20029;-56
2022/07/27 06:04:24;;;;;;;29.92;26.80;;;;;;;26.27;68.99;99111.41;4909168;29;20092;-57
2022/07/27 06:09:34;;;;;;;28.90;25.85;;;;;;;26.35;70.08;99100.91;4908958;29;20253;-56
2022/07/27 06:12:00;;;;;;;31.73;24.98;;;;;;;26.49;70.38;99117.28;4908861;29;20024;-56
2022/07/27 06:14:25;;;;;;;27.48;24.65;;;;;;;26.44;69.29;99114.28;4908896;29;20339;-56
2022/07/27 06:16:51;;;;;;;36.33;26.40;;;;;;;26.43;69.83;99118.72;4908729;29;20020;-56
2022/07/27 06:19:17;;;;;;;30.77;27.52;;;;;;;26.56;69.84;99117.53;4907822;29;20040;-56
2022/07/27 06:21:42;;;;;;;30.17;26.05;;;;;;;26.52;68.69;99122.31;4909076;29;20035;-56
2022/07/27 06:24:08;;;;;;;27.33;24.42;;;;;;;26.56;67.49;99117.53;4908776;29;20028;-56
2022/07/27 06:26:33;;;;;;;29.02;25.95;;;;;;;26.60;67.11;99113.59;4908498;29;20039;-57
2022/07/27 06:29:00;;;;;;;28.80;25.80;;;;;;;26.70;66.68;99112.56;4907527;29;20043;-57
2022/07/27 06:31:26;;;;;;;27.85;24.92;;;;;;;26.68;67.84;99113.69;4908470;29;20069;-57
2022/07/27 06:33:53;;;;;;;27.02;24.35;;;;;;;26.74;66.82;99114.94;4908345;29;20042;-57
2022/07/27 06:36:20;;;;;;;27.52;24.60;;;;;;;26.83;67.15;99111.38;4907202;29;20039;-58
2022/07/27 06:38:46;;;;;;;25.75;23.15;;;;;;;26.96;67.48;99109.16;4908440;29;20028;-55
2022/07/27 06:41:12;;;;;;;25.52;23.15;;;;;;;26.89;66.22;99117.91;4909107;29;20108;-57
2022/07/27 06:43:38;;;;;;;26.58;23.50;;;;;;;26.98;66.88;99119.63;4908467;29;20036;-56
2022/07/27 06:46:05;;;;;;;24.90;22.50;;;;;;;27.06;68.06;99118.88;4916247;29;20056;-57
2022/07/27 06:48:32;;;;;;;28.98;23.08;;;;;;;27.01;65.82;99125.47;4919223;29;20224;-57
2022/07/27 06:50:58;;;;;;;24.90;22.33;;;;;;;27.06;66.87;99122.34;4908396;29;20038;-57
2022/07/27 06:53:25;;;;;;;24.60;21.98;;;;;;;27.12;65.91;99124.44;4908197;29;20054;-57
2022/07/27 06:55:51;;;;;;;25.27;22.50;;;;;;;27.24;64.74;99127.66;4922763;29;20028;-57
2022/07/27 06:58:17;;;;;;;24.42;22.13;;;;;;;27.30;65.12;99131.53;4913195;29;20029;-57
2022/07/27 07:00:43;;;;;;;24.75;22.52;;;;;;;27.44;64.56;99122.19;4908131;29;20040;-57
2022/07/27 07:03:10;;;;;;;23.30;20.85;;;;;;;27.53;65.30;99122.09;4907282;29;20055;-57
2022/07/27 07:05:45;;;;;;;25.27;22.13;;;;;;;27.51;64.97;99125.91;4907738;29;20044;-56
2022/07/27 07:08:13;;;;;;;24.98;22.35;;;;;;;27.65;64.13;99125.34;4907871;29;20032;-56
2022/07/27 07:10:41;;;;;;;24.75;22.05;;;;;;;27.71;64.41;99132.69;4906097;29;20028;-57
2022/07/27 07:13:07;;;;;;;24.00;21.52;;;;;;;27.57;65.39;99122.63;4906261;29;20236;-55
2022/07/27 07:15:35;;;;;;;24.88;22.45;;;;;;;27.70;63.57;99123.00;4907588;29;20342;-56
2022/07/27 07:18:02;;;;;;;26.20;23.48;;;;;;;27.68;63.87;99127.66;4902864;29;20087;-55
2022/07/27 07:20:29;;;;;;;24.95;22.23;;;;;;;27.79;64.09;99129.25;4908088;29;20029;-55
2022/07/27 07:22:58;;;;;;;24.08;21.67;;;;;;;27.94;62.85;99126.00;4907150;29;20104;-55
2022/07/27 07:25:24;;;;;;;24.42;21.85;;;;;;;27.80;63.21;99120.25;4905241;29;20036;-56
2022/07/27 07:27:50;;;;;;;24.55;22.25;;;;;;;27.92;62.66;99141.28;4907404;29;20025;-56
2022/07/27 07:30:16;;;;;;;26.42;23.77;;;;;;;28.01;62.65;99127.06;4907516;29;20297;-55
2022/07/27 07:32:42;;;;;;;25.45;23.05;;;;;;;28.00;64.23;99134.19;4906558;29;20036;-56
2022/07/27 07:35:08;;;;;;;25.33;22.63;;;;;;;28.12;63.33;99118.78;4907606;29;20321;-56
2022/07/27 07:37:34;;;;;;;29.40;24.60;;;;;;;28.12;61.93;99133.91;4907643;29;20040;-56
2022/07/27 07:40:00;;;;;;;24.67;22.17;;;;;;;28.23;62.42;99126.47;4907463;29;20092;-55
2022/07/27 07:42:26;;;;;;;28.10;23.65;;;;;;;28.22;62.59;99134.63;4907257;29;20043;-56
2022/07/27 07:44:51;;;;;;;26.65;23.45;;;;;;;28.22;62.45;99138.13;4907336;29;20029;-56
2022/07/27 07:47:17;;;;;;;25.30;22.88;;;;;;;28.35;62.97;99136.84;4924902;29;20052;-55
2022/07/27 07:49:43;;;;;;;28.02;25.15;;;;;;;28.35;61.99;99143.00;4906042;29;20029;-55
2022/07/27 07:52:09;;;;;;;28.08;24.90;;;;;;;28.30;61.15;99141.81;4906839;29;20032;-56
2022/07/27 07:54:34;;;;;;;25.63;23.13;;;;;;;28.40;61.13;99135.38;4908433;29;20047;-56
2022/07/27 07:57:00;;;;;;;29.17;24.45;;;;;;;28.34;60.34;99140.50;4904921;29;20320;-56
2022/07/27 07:59:26;;;;;;;27.67;24.65;;;;;;;28.46;60.59;99139.22;4906356;29;20277;-56
2022/07/27 08:01:51;;;;;;;26.70;23.88;;;;;;;28.35;58.85;99137.66;4889222;29;20028;-55
2022/07/27 08:04:17;;;;;;;25.48;22.55;;;;;;;28.59;59.47;99133.41;4901927;29;20101;-55
2022/07/27 08:06:43;;;;;;;26.05;23.05;;;;;;;28.72;58.92;99130.31;4896483;29;20068;-55
2022/07/27 08:09:08;;;;;;;25.90;23.50;;;;;;;28.80;59.27;99134.81;4906928;29;20063;-55
2022/07/27 08:11:34;;;;;;;29.83;22.90;;;;;;;28.77;59.96;99137.81;4907650;29;20032;-56
2022/07/27 08:14:00;;;;;;;25.83;23.13;;;;;;;28.88;59.12;99137.50;4922220;29;20332;-56
2022/07/27 08:16:26;;;;;;;27.08;24.25;;;;;;;28.79;60.20;99136.66;4919415;29;20198;-55
2022/07/27 08:18:52;;;;;;;26.92;24.33;;;;;;;28.84;59.50;99136.97;4912115;29;20032;-55
2022/07/27 08:21:18;;;;;;;26.70;24.08;;;;;;;28.95;58.90;99132.34;4909463;29;20043;-56
2022/07/27 08:23:43;;;;;;;25.58;23.02;;;;;;;29.03;59.40;99129.66;4919694;29;20024;-55
2022/07/27 08:26:09;;;;;;;26.27;23.63;;;;;;;28.71;60.45;99131.31;4911543;29;20031;-55
2022/07/27 08:28:35;;;;;;;25.00;22.50;;;;;;;28.85;60.06;99130.66;4914298;29;20044;-56
2022/07/27 08:31:01;;;;;;;24.50;21.45;;;;;;;29.07;58.59;99134.53;4914936;29;20032;-54
2022/07/27 08:33:26;;;;;;;24.63;22.33;;;;;;;29.21;58.00;99142.84;4916951;29;20035;-54
2022/07/27 08:35:52;;;;;;;23.58;21.27;;;;;;;29.22;57.15;99134.69;4916654;29;20272;-55
2022/07/27 08:38:18;;;;;;;24.85;22.33;;;;;;;29.27;58.23;99132.38;4917504;29;20226;-55
2022/07/27 08:40:46;;;;;;;24.02;21.52;;;;;;;29.35;57.04;99138.72;4919627;29;20031;-55
2022/07/27 08:43:18;;;;;;;25.75;22.25;;;;;;;29.33;57.97;99128.22;4918494;29;20321;-55
2022/07/27 08:45:45;;;;;;;;;;;;;;;29.48;57.23;99127.53;4919794;29;20260;-55
2022/07/27 08:48:12;;;;;;;24.50;22.20;;;;;;;29.41;55.77;99130.03;4916398;29;20107;-55
2022/07/27 08:50:39;;;;;;;23.23;21.00;;;;;;;29.17;56.03;99110.31;4913355;29;20031;-56
2022/07/27 08:53:08;;;;;;;25.45;23.05;;;;;;;29.05;55.75;99090.34;4911401;29;20055;-56
2022/07/27 08:55:36;;;;;;;24.90;22.63;;;;;;;28.98;57.08;99090.16;4909899;29;20085;-56
2022/07/27 08:58:03;;;;;;;25.85;23.20;;;;;;;29.39;57.68;99130.19;4923669;29;20332;-56
2022/07/27 09:00:29;;;;;;;23.92;21.52;;;;;;;29.33;55.21;99111.34;4909805;29;20035;-56
2022/07/27 09:02:55;;;;;;;24.60;22.10;;;;;;;29.61;58.35;99127.81;4909715;29;20084;-56
2022/07/27 09:05:21;;;;;;;27.55;22.50;;;;;;;29.74;56.77;99132.63;4908726;29;20036;-56
2022/07/27 09:07:47;;;;;;;23.20;21.10;;;;;;;29.92;56.73;99129.78;4909510;29;20025;-56
2022/07/27 09:10:34;;;;;;;24.08;21.80;;;;;;;29.79;56.23;99125.78;4909612;29;20096;-58
2022/07/27 09:13:20;;;;;;;23.83;21.58;;;;;;;29.96;54.54;99136.44;4901553;29;20036;-56
2022/07/27 09:15:49;;;;;;;24.95;22.50;;;;;;;29.91;54.13;99101.41;4909400;29;20036;-56
2022/07/27 09:18:22;;;;;;;26.08;23.67;;;;;;;29.94;53.17;99127.75;4909677;29;20376;-56
2022/07/27 09:21:10;;;;;;;25.67;23.40;;;;;;;29.60;54.51;99100.31;4923611;29;20084;-56
2022/07/27 09:23:44;;;;;;;23.70;21.63;;;;;;;29.99;54.67;99124.59;4898061;29;20060;-56
2022/07/27 09:26:21;;;;;;;27.85;22.98;;;;;;;30.06;52.66;99129.06;4907964;29;20032;-56
2022/07/27 09:28:53;;;;;;;22.05;19.85;;;;;;;29.98;51.53;99121.06;4907670;29;20040;-56
2022/07/27 09:31:18;;;;;;;21.70;19.50;;;;;;;30.23;50.72;99131.66;4908639;29;20036;-56
2022/07/27 09:33:50;;;;;;;23.95;20.75;;;;;;;29.93;51.97;99097.56;4908781;29;20033;-56
2022/07/27 09:36:17;;;;;;;20.40;18.50;;;;;;;30.23;48.85;99139.66;4907673;29;20068;-56
2022/07/27 09:38:56;;;;;;;18.10;16.50;;;;;;;30.01;46.58;99128.75;4908586;29;20060;-56
2022/07/27 09:41:22;;;;;;;19.55;17.42;;;;;;;30.17;49.15;99133.22;4909318;29;20048;-55
2022/07/27 09:43:53;;;;;;;17.90;16.10;;;;;;;30.22;48.68;99130.00;4909611;29;20035;-55
2022/07/27 09:46:34;;;;;;;18.42;16.67;;;;;;;30.02;48.45;99095.69;4908104;29;20344;-55
2022/07/27 09:49:01;;;;;;;18.20;16.33;;;;;;;30.33;48.63;99139.47;4904774;29;20264;-55
2022/07/27 09:51:27;;;;;;;19.63;17.65;;;;;;;30.39;49.95;99131.59;4905048;29;20152;-54
2022/07/27 09:53:54;;;;;;;21.02;19.00;;;;;;;30.22;48.45;99130.00;4908312;29;20320;-55
2022/07/27 09:56:31;;;;;;;20.17;18.27;;;;;;;29.95;49.73;99086.72;4906437;29;20052;-55
2022/07/27 09:59:01;;;;;;;21.30;18.95;;;;;;;29.73;52.33;99086.44;4907881;29;20044;-55
2022/07/27 10:01:31;;;;;;;21.33;19.20;;;;;;;29.72;50.69;99087.44;4906624;29;20043;-54
2022/07/27 10:03:59;;;;;;;21.17;19.17;;;;;;;30.15;51.15;99129.88;4906710;29;20028;-55
2022/07/27 10:06:27;;;;;;;20.55;18.48;;;;;;;30.18;52.09;99121.50;4905354;29;20037;-55
2022/07/27 10:08:54;;;;;;;22.20;20.08;;;;;;;30.00;51.24;99111.06;4905938;29;20039;-56
2022/07/27 10:11:21;;;;;;;21.27;19.13;;;;;;;30.11;51.09;99116.03;4907699;29;20250;-55
2022/07/27 10:13:48;;;;;;;23.77;21.45;;;;;;;30.20;51.00;99121.31;4907615;29;20212;-55
2022/07/27 10:16:17;;;;;;;23.17;20.75;;;;;;;30.12;50.44;99111.50;4905684;29;20024;-55
2022/07/27 10:18:49;;;;;;;22.33;20.33;;;;;;;30.21;51.62;99123.81;4906440;29;20032;-56
2022/07/27 10:21:15;;;;;;;22.92;20.58;;;;;;;30.06;51.19;99125.56;4905276;29;20032;-56
2022/07/27 10:23:56;;;;;;;22.42;20.23;;;;;;;30.16;51.87;99120.84;4904436;29;20032;-55
2022/07/27 10:26:24;;;;;;;22.30;20.25;;;;;;;30.09;50.31;99125.22;4904276;29;20352;-56
2022/07/27 10:28:55;;;;;;;22.95;20.38;;;;;;;30.03;50.46;99117.88;4904834;29;20048;-55
2022/07/27 10:31:42;;;;;;;21.83;19.75;;;;;;;30.17;50.67;99117.19;4906567;29;20040;-55
2022/07/27 10:34:10;;;;;;;22.55;20.40;;;;;;;30.05;51.45;99087.31;4907087;29;20033;-55
2022/07/27 10:36:48;;;;;;;31.52;21.50;;;;;;;30.33;51.22;99116.25;4907017;29;20100;-55
2022/07/27 10:39:35;;;;;;;38.05;23.38;;;;;;;30.31;52.50;99096.88;4907933;29;20036;-55
2022/07/27 10:42:28;;;;;;;22.75;20.35;;;;;;;30.45;51.00;99119.41;4907741;29;20029;-55
2022/07/27 10:45:01;;;;;;;24.30;21.30;;;;;;;30.38;52.12;99105.88;4894094;29;20040;-57
2022/07/27 10:47:29;;;;;;;21.95;19.23;;;;;;;30.48;51.68;99113.69;4907344;29;20174;-55
2022/07/27 10:50:16;;;;;;;21.17;19.13;;;;;;;30.51;49.34;99115.19;4907814;29;20033;-55
2022/07/27 10:52:51;;;;;;;21.38;19.10;;;;;;;30.41;49.18;99108.22;4906382;29;20040;-55
2022/07/27 10:55:28;;;;;;;21.35;19.20;;;;;;;30.35;48.61;99111.56;4903631;29;20080;-55
2022/07/27 10:58:01;;;;;;;19.05;17.33;;;;;;;30.18;47.85;99113.47;4904056;29;20092;-55
2022/07/27 11:00:49;;;;;;;18.83;17.05;;;;;;;30.17;47.84;99113.66;4904252;29;20702;-55
2022/07/27 11:03:34;;;;;;;18.30;16.25;;;;;;;30.39;46.58;99123.56;4900073;29;20048;-55
2022/07/27 11:06:26;;;;;;;19.65;17.75;;;;;;;30.33;48.74;99110.91;4901704;29;20372;-60
2022/07/27 11:08:52;;;;;;;18.33;16.52;;;;;;;30.41;47.20;99118.91;4904327;29;20084;-55
2022/07/27 11:11:23;;;;;;;20.83;18.45;;;;;;;30.47;48.19;99112.03;4902130;29;20123;-56
2022/07/27 11:13:51;;;;;;;20.17;18.35;;;;;;;30.54;47.82;99117.50;4903620;29;20068;-55
2022/07/27 11:16:18;;;;;;;19.55;17.75;;;;;;;30.45;47.39;99108.72;4902786;29;20044;-55
2022/07/27 11:18:52;;;;;;;19.75;17.90;;;;;;;30.38;47.51;99105.03;4903294;29;20107;-56
2022/07/27 11:21:37;;;;;;;20.38;18.38;;;;;;;30.19;48.76;99066.25;4905831;29;20340;-56
2022/07/27 11:24:12;;;;;;;19.98;18.05;;;;;;;30.44;48.88;99107.88;4912534;29;20308;-55